createdAt,value
2023-01-26T00:00:07.030Z,19.70
2023-01-26T00:02:40.043Z,19.69
2023-01-26T00:05:12.969Z,19.69
2023-01-26T00:07:46.082Z,19.68
2023-01-26T00:10:19.098Z,19.68
2023-01-26T00:12:51.961Z,19.68
2023-01-26T00:15:25.117Z,19.68
2023-01-26T00:17:58.133Z,19.67
2023-01-26T00:20:30.942Z,19.67
2023-01-26T00:23:03.914Z,19.66
2023-01-26T00:25:37.120Z,19.66
2023-01-26T00:28:09.985Z,19.66
2023-01-26T00:30:42.901Z,19.65
2023-01-26T00:33:15.972Z,19.65
2023-01-26T00:35:49.012Z,19.64
2023-01-26T00:38:22.148Z,19.64
2023-01-26T00:40:55.141Z,19.64
2023-01-26T00:43:28.066Z,19.63
2023-01-26T00:46:01.069Z,19.63
2023-01-26T00:48:34.091Z,19.63
2023-01-26T00:51:07.105Z,19.62
2023-01-26T00:53:40.072Z,19.62
2023-01-26T00:56:27.114Z,19.62
2023-01-26T00:59:00.011Z,19.62
2023-01-26T01:01:33.287Z,19.61
2023-01-26T01:04:09.095Z,19.61
2023-01-26T01:06:42.090Z,19.61
2023-01-26T01:09:15.234Z,19.61
2023-01-26T01:11:48.223Z,19.61
2023-01-26T01:14:21.130Z,19.61
2023-01-26T01:16:54.132Z,19.60
2023-01-26T01:19:27.078Z,19.61
2023-01-26T01:22:00.084Z,19.61
2023-01-26T01:24:47.032Z,19.61
2023-01-26T01:27:20.222Z,19.61
2023-01-26T01:29:53.153Z,19.61
2023-01-26T01:32:26.267Z,19.61
2023-01-26T01:34:59.229Z,19.61
2023-01-26T01:37:32.215Z,19.61
2023-01-26T01:40:05.219Z,19.60
2023-01-26T01:42:38.108Z,19.60
2023-01-26T01:45:11.149Z,19.60
2023-01-26T01:47:50.073Z,19.60
2023-01-26T01:50:23.244Z,19.59
2023-01-26T01:52:56.098Z,19.59
2023-01-26T01:55:29.249Z,19.59
2023-01-26T01:58:08.221Z,19.59
2023-01-26T02:00:40.920Z,19.59
2023-01-26T02:03:13.887Z,19.58
2023-01-26T02:05:47.149Z,19.58
2023-01-26T02:08:20.307Z,19.58
2023-01-26T02:10:53.138Z,19.58
2023-01-26T02:13:26.181Z,19.58
2023-01-26T02:15:59.410Z,19.57
2023-01-26T02:18:32.180Z,19.57
2023-01-26T02:21:05.259Z,19.57
2023-01-26T02:23:38.214Z,19.56
2023-01-26T02:26:11.269Z,19.56
2023-01-26T02:28:44.198Z,19.55
2023-01-26T02:31:17.430Z,19.55
2023-01-26T02:33:50.225Z,19.55
2023-01-26T02:36:23.227Z,19.55
2023-01-26T02:38:56.191Z,19.55
2023-01-26T02:41:29.299Z,19.54
2023-01-26T02:44:02.220Z,19.54
2023-01-26T02:46:35.336Z,19.54
2023-01-26T02:49:08.261Z,19.54
2023-01-26T02:51:41.345Z,19.53
2023-01-26T02:54:14.238Z,19.53
2023-01-26T02:56:47.216Z,19.53
2023-01-26T02:59:20.248Z,19.53
2023-01-26T03:01:53.381Z,19.53
2023-01-26T03:04:26.314Z,19.53
2023-01-26T03:06:59.291Z,19.53
2023-01-26T03:09:32.244Z,19.53
2023-01-26T03:12:05.290Z,19.53
2023-01-26T03:14:38.186Z,19.53
2023-01-26T03:17:10.975Z,19.53
2023-01-26T03:19:44.192Z,19.53
2023-01-26T03:22:17.270Z,19.53
2023-01-26T03:24:50.163Z,19.53
2023-01-26T03:27:23.411Z,19.53
2023-01-26T03:29:56.420Z,19.53
2023-01-26T03:32:29.305Z,19.53
2023-01-26T03:35:02.423Z,19.52
2023-01-26T03:37:35.433Z,19.52
2023-01-26T03:40:08.574Z,19.52
2023-01-26T03:42:41.359Z,19.52
2023-01-26T03:45:14.170Z,19.52
2023-01-26T03:47:47.357Z,19.52
2023-01-26T03:50:20.403Z,19.51
2023-01-26T03:52:53.319Z,19.51
2023-01-26T03:55:26.305Z,19.51
2023-01-26T03:57:59.423Z,19.51
2023-01-26T04:00:32.423Z,19.51
2023-01-26T04:03:05.438Z,19.50
2023-01-26T04:05:38.376Z,19.50
2023-01-26T04:08:11.344Z,19.50
2023-01-26T04:10:44.469Z,19.49
2023-01-26T04:13:17.389Z,19.49
2023-01-26T04:15:50.464Z,19.49
2023-01-26T04:18:23.383Z,19.49
2023-01-26T04:20:56.370Z,19.49
2023-01-26T04:23:29.473Z,19.48
2023-01-26T04:26:02.076Z,19.48
2023-01-26T04:28:35.423Z,19.48
2023-01-26T04:31:08.352Z,19.48
2023-01-26T04:33:41.532Z,19.47
2023-01-26T04:36:14.379Z,19.47
2023-01-26T04:38:47.434Z,19.47
2023-01-26T04:41:20.535Z,19.47
2023-01-26T04:43:53.129Z,19.47
2023-01-26T04:46:26.432Z,19.47
2023-01-26T04:48:59.641Z,19.46
2023-01-26T04:51:35.481Z,19.46
2023-01-26T04:54:08.437Z,19.46
2023-01-26T04:56:41.218Z,19.46
2023-01-26T04:59:14.146Z,19.46
2023-01-26T05:01:47.251Z,19.46
2023-01-26T05:04:20.208Z,19.46
2023-01-26T05:06:53.303Z,19.46
2023-01-26T05:09:26.169Z,19.45
2023-01-26T05:11:59.724Z,19.45
2023-01-26T05:14:33.261Z,19.45
2023-01-26T05:17:06.398Z,19.45
2023-01-26T05:19:39.533Z,19.45
2023-01-26T05:22:12.848Z,19.44
2023-01-26T05:24:45.444Z,19.44
2023-01-26T05:27:18.493Z,19.44
2023-01-26T05:29:51.526Z,19.44
2023-01-26T05:32:24.480Z,19.43
2023-01-26T05:34:57.567Z,19.43
2023-01-26T05:37:30.586Z,19.43
2023-01-26T05:40:03.500Z,19.42
2023-01-26T05:42:36.519Z,19.42
2023-01-26T05:45:09.445Z,19.42
2023-01-26T05:47:42.243Z,19.41
2023-01-26T05:50:15.449Z,19.41
2023-01-26T05:52:48.525Z,19.41
2023-01-26T05:55:21.685Z,19.41
2023-01-26T05:57:54.625Z,19.40
2023-01-26T06:00:27.615Z,19.40
2023-01-26T06:03:00.546Z,19.40
2023-01-26T06:05:33.492Z,19.40
2023-01-26T06:08:06.565Z,19.40
2023-01-26T06:10:53.616Z,19.40
2023-01-26T06:13:26.665Z,19.40
2023-01-26T06:15:59.615Z,19.41
2023-01-26T06:18:32.623Z,19.41
2023-01-26T06:21:05.663Z,19.41
2023-01-26T06:23:38.546Z,19.42
2023-01-26T06:26:11.288Z,19.42
2023-01-26T06:28:44.546Z,19.42
2023-01-26T06:31:17.706Z,19.43
2023-01-26T06:33:50.569Z,19.43
2023-01-26T06:36:23.682Z,19.44
2023-01-26T06:38:58.113Z,19.44
2023-01-26T06:41:43.301Z,19.45
2023-01-26T06:44:16.319Z,19.45
2023-01-26T06:46:49.500Z,19.45
2023-01-26T06:49:22.332Z,19.46
2023-01-26T06:51:55.683Z,19.47
2023-01-26T06:54:28.712Z,19.47
2023-01-26T06:57:01.377Z,19.47
2023-01-26T06:59:36.199Z,19.47
2023-01-26T07:02:07.675Z,19.47
2023-01-26T07:04:40.516Z,19.47
2023-01-26T07:07:13.709Z,19.46
2023-01-26T07:09:46.689Z,19.47
2023-01-26T07:12:19.514Z,19.48
2023-01-26T07:14:52.442Z,19.49
2023-01-26T07:17:25.755Z,19.50
2023-01-26T07:19:58.745Z,19.51
2023-01-26T07:22:31.714Z,19.52
2023-01-26T07:25:04.746Z,19.53
2023-01-26T07:27:37.475Z,19.54
2023-01-26T07:30:10.828Z,19.55
2023-01-26T07:32:43.512Z,19.57
2023-01-26T07:35:16.721Z,19.58
2023-01-26T07:37:49.373Z,19.59
2023-01-26T07:40:22.601Z,19.60
2023-01-26T07:42:55.396Z,19.61
2023-01-26T07:45:28.581Z,19.61
2023-01-26T07:48:01.687Z,19.62
2023-01-26T07:50:34.525Z,19.63
2023-01-26T07:53:07.481Z,19.64
2023-01-26T07:55:40.822Z,19.65
2023-01-26T07:58:13.809Z,19.66
2023-01-26T08:00:46.494Z,19.66
2023-01-26T08:03:19.669Z,19.67
2023-01-26T08:05:52.721Z,19.67
2023-01-26T08:08:25.404Z,19.68
2023-01-26T08:10:58.653Z,19.69
2023-01-26T08:13:35.798Z,19.69
2023-01-26T08:16:04.692Z,19.70
2023-01-26T08:18:37.633Z,19.71
2023-01-26T08:21:10.435Z,19.71
2023-01-26T08:23:43.822Z,19.72
2023-01-26T08:26:23.835Z,19.73
2023-01-26T08:29:10.829Z,19.74
2023-01-26T08:31:43.820Z,19.74
2023-01-26T08:34:16.772Z,19.75
2023-01-26T08:36:49.769Z,19.76
2023-01-26T08:39:22.780Z,19.77
2023-01-26T08:41:55.480Z,19.77
2023-01-26T08:44:28.674Z,19.78
2023-01-26T08:47:01.630Z,19.79
2023-01-26T08:49:34.660Z,19.79
2023-01-26T08:52:07.557Z,19.80
2023-01-26T08:54:40.925Z,19.81
2023-01-26T08:57:13.801Z,19.82
2023-01-26T08:59:46.808Z,19.82
2023-01-26T09:02:19.652Z,19.83
2023-01-26T09:04:52.807Z,19.84
2023-01-26T09:07:25.537Z,19.84
2023-01-26T09:09:58.789Z,19.85
2023-01-26T09:12:31.772Z,19.85
2023-01-26T09:15:04.715Z,19.86
2023-01-26T09:17:37.580Z,19.87
2023-01-26T09:20:24.577Z,19.87
2023-01-26T09:22:57.608Z,19.87
2023-01-26T09:25:30.868Z,19.88
2023-01-26T09:28:05.553Z,19.88
2023-01-26T09:30:37.086Z,19.88
2023-01-26T09:33:10.770Z,19.89
2023-01-26T09:35:43.654Z,19.89
2023-01-26T09:38:22.634Z,19.90
2023-01-26T09:40:55.582Z,19.90
2023-01-26T09:43:28.680Z,19.91
2023-01-26T09:46:01.869Z,19.91
2023-01-26T09:48:34.654Z,19.91
2023-01-26T09:51:07.795Z,19.91
2023-01-26T09:53:40.691Z,19.91
2023-01-26T09:56:13.709Z,19.85
2023-01-26T09:58:46.804Z,19.80
2023-01-26T10:01:19.968Z,19.76
2023-01-26T10:03:52.976Z,19.74
2023-01-26T10:06:25.874Z,19.72
2023-01-26T10:08:58.891Z,19.71
2023-01-26T10:11:31.634Z,19.71
2023-01-26T10:14:04.984Z,19.71
2023-01-26T10:16:37.637Z,19.71
2023-01-26T10:19:10.933Z,19.72
2023-01-26T10:21:57.877Z,19.72
2023-01-26T10:24:30.751Z,19.73
2023-01-26T10:27:04.011Z,19.74
2023-01-26T10:29:36.979Z,19.75
2023-01-26T10:32:09.958Z,19.76
2023-01-26T10:34:43.053Z,19.77
2023-01-26T10:37:15.900Z,19.79
2023-01-26T10:39:48.970Z,19.80
2023-01-26T10:42:21.910Z,19.81
2023-01-26T10:44:54.994Z,19.82
2023-01-26T10:47:27.720Z,19.83
2023-01-26T10:50:00.942Z,19.84
2023-01-26T10:52:34.011Z,19.85
2023-01-26T10:55:06.951Z,19.86
2023-01-26T10:57:39.988Z,19.87
2023-01-26T11:00:12.950Z,19.88
2023-01-26T11:02:46.139Z,19.89
2023-01-26T11:05:19.106Z,19.90
2023-01-26T11:07:51.970Z,19.90
2023-01-26T11:10:24.856Z,19.91
2023-01-26T11:12:58.142Z,19.91
2023-01-26T11:15:31.129Z,19.92
2023-01-26T11:18:03.998Z,19.92
2023-01-26T11:20:36.862Z,19.93
2023-01-26T11:23:09.742Z,19.93
2023-01-26T11:25:43.077Z,19.94
2023-01-26T11:28:18.957Z,19.94
2023-01-26T11:30:52.116Z,19.94
2023-01-26T11:33:25.036Z,19.95
2023-01-26T11:35:57.993Z,19.95
2023-01-26T11:38:30.998Z,19.96
2023-01-26T11:41:04.147Z,19.96
2023-01-26T11:43:42.897Z,19.96
2023-01-26T11:46:15.946Z,19.96
2023-01-26T11:48:49.035Z,19.96
2023-01-26T11:51:22.040Z,19.97
2023-01-26T11:53:55.042Z,19.97
2023-01-26T11:56:28.041Z,19.97
2023-01-26T11:59:01.091Z,19.97
2023-01-26T12:01:34.117Z,19.97
2023-01-26T12:04:07.166Z,19.97
2023-01-26T12:06:39.961Z,19.97
2023-01-26T12:09:13.047Z,19.97
2023-01-26T12:11:46.041Z,19.97
2023-01-26T12:14:19.053Z,19.97
2023-01-26T12:16:51.915Z,19.98
2023-01-26T12:19:25.085Z,19.97
2023-01-26T12:21:58.150Z,19.97
2023-01-26T12:25:01.082Z,19.97
2023-01-26T12:27:03.879Z,19.97
2023-01-26T12:29:36.810Z,19.98
2023-01-26T12:32:23.857Z,19.98
2023-01-26T12:34:56.921Z,19.98
2023-01-26T12:37:29.953Z,19.98
2023-01-26T12:40:03.033Z,19.98
2023-01-26T12:42:35.941Z,19.98
2023-01-26T12:45:08.865Z,19.99
2023-01-26T12:47:42.141Z,19.99
2023-01-26T12:50:15.497Z,19.99
2023-01-26T12:52:48.173Z,19.99
2023-01-26T12:55:22.912Z,19.98
2023-01-26T12:57:55.957Z,19.98
2023-01-26T13:00:29.120Z,19.98
2023-01-26T13:03:01.989Z,19.98
2023-01-26T13:05:35.243Z,19.97
2023-01-26T13:08:08.013Z,19.97
2023-01-26T13:10:41.038Z,19.97
2023-01-26T13:13:14.162Z,19.97
2023-01-26T13:15:47.267Z,19.96
2023-01-26T13:18:20.128Z,19.96
2023-01-26T13:20:52.985Z,19.96
2023-01-26T13:23:25.972Z,19.96
2023-01-26T13:26:09.464Z,19.96
2023-01-26T13:28:31.997Z,19.96
2023-01-26T13:31:05.277Z,19.96
2023-01-26T13:33:38.350Z,19.96
2023-01-26T13:36:10.942Z,19.96
2023-01-26T13:38:44.099Z,19.96
2023-01-26T13:41:16.941Z,19.95
2023-01-26T13:43:50.029Z,19.95
2023-01-26T13:46:23.086Z,19.95
2023-01-26T13:48:56.051Z,19.95
2023-01-26T13:51:28.990Z,19.95
2023-01-26T13:54:02.157Z,19.95
2023-01-26T13:56:35.188Z,19.95
2023-01-26T13:59:08.062Z,19.95
2023-01-26T14:01:41.548Z,19.94
2023-01-26T14:04:15.210Z,19.94
2023-01-26T14:06:48.279Z,19.94
2023-01-26T14:09:21.415Z,19.95
2023-01-26T14:11:55.389Z,19.95
2023-01-26T14:14:28.333Z,19.95
2023-01-26T14:17:01.253Z,19.95
2023-01-26T14:19:34.304Z,19.95
2023-01-26T14:22:07.276Z,19.95
2023-01-26T14:24:40.306Z,19.95
2023-01-26T14:27:13.019Z,19.95
2023-01-26T14:29:46.389Z,19.95
2023-01-26T14:32:19.287Z,19.95
2023-01-26T14:34:52.368Z,19.95
2023-01-26T14:37:25.443Z,19.95
2023-01-26T14:39:59.385Z,19.95
2023-01-26T14:42:32.362Z,19.95
2023-01-26T14:45:05.269Z,19.95
2023-01-26T14:47:38.329Z,19.95
2023-01-26T14:50:11.679Z,19.95
2023-01-26T14:52:44.437Z,19.95
2023-01-26T14:55:17.315Z,19.95
2023-01-26T14:57:50.451Z,19.95
2023-01-26T15:00:23.528Z,19.95
2023-01-26T15:02:56.304Z,19.96
2023-01-26T15:05:29.375Z,19.96
2023-01-26T15:08:02.351Z,19.96
2023-01-26T15:10:35.223Z,19.97
2023-01-26T15:13:08.410Z,19.97
2023-01-26T15:15:41.356Z,19.97
2023-01-26T15:18:14.478Z,19.97
2023-01-26T15:20:47.100Z,19.98
2023-01-26T15:23:20.508Z,19.98
2023-01-26T15:25:53.376Z,19.98
2023-01-26T15:28:26.135Z,19.98
2023-01-26T15:30:59.300Z,19.89
2023-01-26T15:33:32.252Z,19.77
2023-01-26T15:36:05.264Z,19.68
2023-01-26T15:38:38.513Z,19.61
2023-01-26T15:41:11.120Z,19.58
2023-01-26T15:43:44.405Z,19.56
2023-01-26T15:46:17.415Z,19.54
2023-01-26T15:48:50.567Z,19.54
2023-01-26T15:51:23.450Z,19.55
2023-01-26T15:53:57.539Z,19.55
2023-01-26T15:56:30.451Z,19.57
2023-01-26T15:59:03.481Z,19.58
2023-01-26T16:01:36.465Z,19.59
2023-01-26T16:04:09.414Z,19.61
2023-01-26T16:06:42.347Z,19.62
2023-01-26T16:09:15.228Z,19.63
2023-01-26T16:11:48.354Z,19.65
2023-01-26T16:14:21.323Z,19.67
2023-01-26T16:16:54.558Z,19.69
2023-01-26T16:19:35.390Z,19.70
2023-01-26T16:22:00.255Z,19.71
2023-01-26T16:24:36.372Z,19.73
2023-01-26T16:27:09.425Z,19.74
2023-01-26T16:29:42.354Z,19.75
2023-01-26T16:32:15.440Z,19.77
2023-01-26T16:34:48.386Z,19.78
2023-01-26T16:37:27.315Z,19.79
2023-01-26T16:40:14.144Z,19.80
2023-01-26T16:42:47.397Z,19.80
2023-01-26T16:45:20.323Z,19.81
2023-01-26T16:47:53.403Z,19.82
2023-01-26T16:50:26.411Z,19.82
2023-01-26T16:52:59.320Z,19.82
2023-01-26T16:55:32.223Z,19.82
2023-01-26T16:58:05.411Z,19.82
2023-01-26T17:00:52.304Z,19.82
2023-01-26T17:03:25.214Z,19.82
2023-01-26T17:05:58.380Z,19.81
2023-01-26T17:08:31.313Z,19.81
2023-01-26T17:11:04.328Z,19.80
2023-01-26T17:13:37.386Z,19.79
2023-01-26T17:16:10.310Z,19.79
2023-01-26T17:18:43.390Z,19.78
2023-01-26T17:21:16.260Z,19.78
2023-01-26T17:23:49.341Z,19.77
2023-01-26T17:26:22.264Z,19.77
2023-01-26T17:28:55.295Z,19.77
2023-01-26T17:31:28.502Z,19.77
2023-01-26T17:34:01.275Z,19.77
2023-01-26T17:36:34.324Z,19.77
2023-01-26T17:39:07.295Z,19.77
2023-01-26T17:41:40.438Z,19.78
2023-01-26T17:44:13.336Z,19.78
2023-01-26T17:46:46.676Z,19.78
2023-01-26T17:49:19.366Z,19.78
2023-01-26T17:51:52.385Z,19.78
2023-01-26T17:54:25.493Z,19.78
2023-01-26T17:57:12.224Z,19.79
2023-01-26T17:59:45.335Z,19.79
2023-01-26T18:02:18.393Z,19.79
2023-01-26T18:04:51.619Z,19.80
2023-01-26T18:07:24.406Z,19.81
2023-01-26T18:09:57.361Z,19.81
2023-01-26T18:12:30.538Z,19.82
2023-01-26T18:15:03.350Z,19.82
2023-01-26T18:17:36.477Z,19.83
2023-01-26T18:20:09.353Z,19.84
2023-01-26T18:22:42.576Z,19.85
2023-01-26T18:25:15.391Z,19.85
2023-01-26T18:27:48.545Z,19.86
2023-01-26T18:30:21.579Z,19.86
2023-01-26T18:32:54.666Z,19.87
2023-01-26T18:35:27.633Z,19.88
2023-01-26T18:38:00.572Z,19.88
2023-01-26T18:40:33.639Z,19.89
2023-01-26T18:43:06.693Z,19.90
2023-01-26T18:45:39.415Z,19.90
2023-01-26T18:48:12.405Z,19.90
2023-01-26T18:50:45.457Z,19.91
2023-01-26T18:53:18.876Z,19.91
2023-01-26T18:55:52.718Z,19.92
2023-01-26T18:58:26.394Z,19.92
2023-01-26T19:00:59.588Z,19.93
2023-01-26T19:03:32.411Z,19.93
2023-01-26T19:06:05.676Z,19.93
2023-01-26T19:08:38.580Z,19.94
2023-01-26T19:11:11.495Z,19.94
2023-01-26T19:13:44.626Z,19.95
2023-01-26T19:16:17.750Z,19.96
2023-01-26T19:18:50.549Z,19.96
2023-01-26T19:21:23.537Z,19.97
2023-01-26T19:23:56.767Z,19.97
2023-01-26T19:26:29.835Z,19.98
2023-01-26T19:29:02.546Z,19.98
2023-01-26T19:31:35.601Z,19.98
2023-01-26T19:34:08.522Z,19.99
2023-01-26T19:36:41.558Z,19.99
2023-01-26T19:39:14.477Z,19.98
2023-01-26T19:41:47.601Z,19.98
2023-01-26T19:44:20.616Z,19.99
2023-01-26T19:46:53.587Z,19.98
2023-01-26T19:49:26.617Z,19.99
2023-01-26T19:51:59.709Z,19.99
2023-01-26T19:54:32.584Z,19.99
2023-01-26T19:57:05.680Z,19.98
2023-01-26T19:59:40.389Z,19.98
2023-01-26T20:02:13.533Z,19.98
2023-01-26T20:05:00.633Z,19.98
2023-01-26T20:07:35.425Z,19.98
2023-01-26T20:10:08.494Z,19.98
2023-01-26T20:12:41.697Z,19.98
2023-01-26T20:15:15.176Z,19.99
2023-01-26T20:17:47.693Z,19.99
2023-01-26T20:20:20.542Z,19.99
2023-01-26T20:22:53.880Z,19.99
2023-01-26T20:25:26.678Z,19.99
2023-01-26T20:27:59.830Z,19.99
2023-01-26T20:30:32.799Z,19.99
2023-01-26T20:33:05.555Z,19.99
2023-01-26T20:35:38.562Z,20.00
2023-01-26T20:38:11.571Z,20.00
2023-01-26T20:40:44.674Z,20.00
2023-01-26T20:43:17.562Z,20.00
2023-01-26T20:45:50.616Z,20.01
2023-01-26T20:48:23.764Z,20.01
2023-01-26T20:50:56.921Z,20.01
2023-01-26T20:53:29.579Z,20.01
2023-01-26T20:56:02.617Z,20.02
2023-01-26T20:58:35.699Z,20.02
2023-01-26T21:01:08.736Z,20.02
2023-01-26T21:03:41.615Z,20.02
2023-01-26T21:06:14.984Z,20.02
2023-01-26T21:08:47.884Z,20.03
2023-01-26T21:11:20.599Z,20.03
2023-01-26T21:13:53.885Z,20.04
2023-01-26T21:16:26.831Z,20.05
2023-01-26T21:18:59.886Z,20.06
2023-01-26T21:21:32.976Z,20.07
2023-01-26T21:24:05.748Z,20.07
2023-01-26T21:26:39.001Z,20.08
2023-01-26T21:29:11.757Z,20.09
2023-01-26T21:31:44.829Z,20.10
2023-01-26T21:34:17.645Z,20.10
2023-01-26T21:36:50.948Z,20.11
2023-01-26T21:39:26.680Z,20.11
2023-01-26T21:41:59.752Z,20.11
2023-01-26T21:44:32.830Z,20.12
2023-01-26T21:47:05.944Z,20.12
2023-01-26T21:49:38.926Z,20.12
2023-01-26T21:52:12.085Z,20.13
2023-01-26T21:54:44.806Z,20.13
2023-01-26T21:57:17.688Z,20.13
2023-01-26T21:59:51.773Z,20.14
2023-01-26T22:02:24.879Z,20.13
2023-01-26T22:05:00.812Z,20.13
2023-01-26T22:07:33.806Z,20.12
2023-01-26T22:10:06.892Z,20.12
2023-01-26T22:12:39.835Z,20.11
2023-01-26T22:15:12.789Z,20.10
2023-01-26T22:17:46.134Z,20.09
2023-01-26T22:20:19.082Z,20.08
2023-01-26T22:22:52.086Z,20.07
2023-01-26T22:25:25.052Z,20.05
2023-01-26T22:27:58.015Z,20.04
2023-01-26T22:30:45.197Z,20.03
2023-01-26T22:33:17.984Z,20.02
2023-01-26T22:35:51.007Z,20.01
2023-01-26T22:38:24.031Z,20.00
2023-01-26T22:40:57.110Z,19.99
2023-01-26T22:43:30.116Z,19.98
2023-01-26T22:46:03.184Z,19.96
2023-01-26T22:48:36.027Z,19.96
2023-01-26T22:51:09.014Z,19.94
2023-01-26T22:53:42.033Z,19.93
2023-01-26T22:56:15.044Z,19.92
2023-01-26T22:58:57.515Z,19.91
2023-01-26T23:01:21.114Z,19.90
2023-01-26T23:03:54.128Z,19.89
2023-01-26T23:06:27.141Z,19.88
2023-01-26T23:09:00.096Z,19.87
2023-01-26T23:11:33.076Z,19.87
2023-01-26T23:14:06.047Z,19.86
2023-01-26T23:16:39.090Z,19.85
2023-01-26T23:19:12.185Z,19.84
2023-01-26T23:21:44.949Z,19.83
2023-01-26T23:27:08.091Z,19.82
2023-01-26T23:29:41.133Z,19.81
2023-01-26T23:32:14.108Z,19.80
2023-01-26T23:34:47.127Z,19.80
2023-01-26T23:37:20.134Z,19.79
2023-01-26T23:39:53.113Z,19.78
2023-01-26T23:42:26.200Z,19.78
2023-01-26T23:44:59.258Z,19.77
2023-01-26T23:47:32.328Z,19.77
2023-01-26T23:50:05.107Z,19.76
2023-01-26T23:52:38.131Z,19.76
2023-01-26T23:55:11.208Z,19.75
2023-01-26T23:57:44.122Z,19.74
